Aviation Digital Data Service (ADDS)

Output produced by METARs form (0242 UTC 24 July 2017)
found at http://www.aviationweather.gov/adds/metars/
 
RPLC 240200Z 10002KT 8000 SCT020 BKN100 29/25 Q1008 NOSIG RMK A2977
TAF RPLC 232300Z 2400/2506 34005KT 9999 SCT020 BKN300 TX30/2406Z TN24/2421Z 
     TEMPO 2400/2406 13010KT 8000 TS -SHRA FEW015CB SCT020 BKN100
       
RPVD 240200Z 09006KT 9999 SCT015 BKN080 BKN220 29/25 Q1008 NOSIG RMK A2977
TAF RPVD 232300Z 2400/2424 27004KT 9999 FEW015 BSCT080 BKN220 
     TEMPO 2400/2406 24006KT 9000 -SHRA FEW014CB SCT015 BKN080
       
RPMD 240200Z 17007KT 9999 FEW016 SCT090 BKN290 31/23 Q1008 RMK A2977
TAF RPMD 232300Z 2400/2424 34005KT 9999 FEW016 SCT090 BKN290 
     TEMPO 2400/2406 16008KT FEW015CB FEW016 BKN090
       
RPLI 240200Z 29004KT 9999 FEW019 SCT290 30/25 Q1006 NOSIG RMK A2971
TAF RPLI 232300Z 2400/2424 22008KT 9999 FEW019 SCT100 BKN280 
     TEMPO 2400/2406 18012KT 9000 -TSRA FEW018CB SCT019 BKN100
       
RPVM 240200Z 22012KT 9999 FEW020 BKN090 30/23 Q1008 NOSIG RMK A2977
TAF RPVM 232300Z 2400/2506 24005KT 9999 FEW020 SCT100 
     TEMPO 2400/2406 23007KT FEW018CB SCT020 BKN100 
     TEMPO 2406/2412 25005KT 9000 -SHRA SCT020 OVC090
       
RPLB 240200Z 21008KT 9999 SCT018 BKN080 29/25 Q1007 RMK A2974
TAF COR RPLB 232300Z 2400/2424 20007KT 9999 FEW018 BKN080 TX30/2406Z TN24/2422Z 
     TEMPO 2400/2406 23014KT 6000 TSRA FEW016CB BKN018 OVC080
       
RPLC 240200Z 10002KT 8000 SCT020 BKN100 29/25 Q1008 NOSIG RMK A2977
TAF RPLC 232300Z 2400/2506 34005KT 9999 SCT020 BKN300 TX30/2406Z TN24/2421Z 
     TEMPO 2400/2406 13010KT 8000 TS -SHRA FEW015CB SCT020 BKN100
       
RPLI 240200Z 29004KT 9999 FEW019 SCT290 30/25 Q1006 NOSIG RMK A2971
TAF RPLI 232300Z 2400/2424 22008KT 9999 FEW019 SCT100 BKN280 
     TEMPO 2400/2406 18012KT 9000 -TSRA FEW018CB SCT019 BKN100
       
RPLL 240200Z 27006KT 240V330 9999 SCT023 SCT100 OVC250 30/26 Q1007 NOSIG RMK A2974
TAF RPLL 232300Z 2400/2506 26006KT 9999 FEW025 SCT100 TX32/2406Z TN25/24321Z 
     TEMPO 2400/2406 24011KT FEW020CB SCT023 BKN300 
     TEMPO 2406/2412 25013KT 9000 -SHRA FEW022CB SCT023 OVC090 
     TEMPO 2414/2418 20004KT 8000 -RA SCT023 OVC090
       
RPMD 240200Z 17007KT 9999 FEW016 SCT090 BKN290 31/23 Q1008 RMK A2977
TAF RPMD 232300Z 2400/2424 34005KT 9999 FEW016 SCT090 BKN290 
     TEMPO 2400/2406 16008KT FEW015CB FEW016 BKN090
       
RPMR 240200Z 16004KT 9999 FEW018 BKN080 30/25 Q1011 NOSIG RMK A2985
TAF RPMR 232300Z 2400/2424 25004KT 9999 FEW018 SCT080 BKN250 
     TEMPO 2400/2406 32006KT FEW017CB BKN080
       
RPMZ 240200Z 27004KT 9999 FEW017 BKN100 29/24 Q1011 RMK A2985
TAF RPMZ 232300Z 2400/2424 25004KT 9999 FEW017 BKN300 
     TEMPO 2400/2406 27002KT FEW017CB SCT018 OVC100
       
RPVD 240200Z 09006KT 9999 SCT015 BKN080 BKN220 29/25 Q1008 NOSIG RMK A2977
TAF RPVD 232300Z 2400/2424 27004KT 9999 FEW015 BSCT080 BKN220 
     TEMPO 2400/2406 24006KT 9000 -SHRA FEW014CB SCT015 BKN080
       
RPVM 240200Z 22012KT 9999 FEW020 BKN090 30/23 Q1008 NOSIG RMK A2977
TAF RPVM 232300Z 2400/2506 24005KT 9999 FEW020 SCT100 
     TEMPO 2400/2406 23007KT FEW018CB SCT020 BKN100 
     TEMPO 2406/2412 25005KT 9000 -SHRA SCT020 OVC090
       
RPVP 240200Z 04002KT 9999 FEW019 SCT080 BKN240 30/25 Q1008 NOSIG RMK A2977
TAF RPVP 232300Z 2400/2424 18006KT 9999 FEW019 SCT080 BKN240 
     TEMPO 2400/2406 22008KT FEW017CB BKN080
       
RPLL 240200Z 27006KT 240V330 9999 SCT023 SCT100 OVC250 30/26 Q1007 NOSIG RMK A2974
TAF RPLL 232300Z 2400/2506 26006KT 9999 FEW025 SCT100 TX32/2406Z TN25/24321Z 
     TEMPO 2400/2406 24011KT FEW020CB SCT023 BKN300 
     TEMPO 2406/2412 25013KT 9000 -SHRA FEW022CB SCT023 OVC090 
     TEMPO 2414/2418 20004KT 8000 -RA SCT023 OVC090
       
RPVP 240200Z 04002KT 9999 FEW019 SCT080 BKN240 30/25 Q1008 NOSIG RMK A2977
TAF RPVP 232300Z 2400/2424 18006KT 9999 FEW019 SCT080 BKN240 
     TEMPO 2400/2406 22008KT FEW017CB BKN080
       
RPLB 240200Z 21008KT 9999 SCT018 BKN080 29/25 Q1007 RMK A2974
TAF COR RPLB 232300Z 2400/2424 20007KT 9999 FEW018 BKN080 TX30/2406Z TN24/2422Z 
     TEMPO 2400/2406 23014KT 6000 TSRA FEW016CB BKN018 OVC080
       
RPMR 240200Z 16004KT 9999 FEW018 BKN080 30/25 Q1011 NOSIG RMK A2985
TAF RPMR 232300Z 2400/2424 25004KT 9999 FEW018 SCT080 BKN250 
     TEMPO 2400/2406 32006KT FEW017CB BKN080
       
RPMZ 240200Z 27004KT 9999 FEW017 BKN100 29/24 Q1011 RMK A2985
TAF RPMZ 232300Z 2400/2424 25004KT 9999 FEW017 BKN300 
     TEMPO 2400/2406 27002KT FEW017CB SCT018 OVC100